Time;durP1;ratioP1;P1;durP2;ratioP2;P2;SDS_P1;SDS_P2;PMS_P1;PMS_P2;Temp;Humidity;BMP_temperature;BMP_pressure;BME280_temperature;BME280_humidity;BME280_pressure;Samples;Min_cycle;Max_cycle;Signal;HPM_P1;HPM_P2
2021/06/10 00:02:03;;;;;;;8.87;7.97;;;19.90;99.90;;;;;;4975910;28;20215;-81
2021/06/10 00:04:29;;;;;;;10.17;9.17;;;19.90;99.90;;;;;;4966987;28;20194;-83
2021/06/10 00:06:55;;;;;;;9.47;8.57;;;19.60;99.90;;;;;;4967430;28;20600;-83
2021/06/10 00:09:20;;;;;;;9.50;8.60;;;19.50;99.90;;;;;;4966710;28;20203;-81
2021/06/10 00:11:46;;;;;;;11.00;8.20;;;19.50;99.90;;;;;;4964786;28;20264;-83
2021/06/10 00:14:13;;;;;;;9.50;8.53;;;19.60;99.90;;;;;;4967847;28;20657;-82
2021/06/10 00:16:38;;;;;;;9.53;8.40;;;19.80;99.90;;;;;;4964969;28;20190;-82
2021/06/10 00:19:04;;;;;;;8.87;8.07;;;19.80;99.90;;;;;;4968866;28;20437;-82
2021/06/10 00:21:30;;;;;;;9.70;8.70;;;19.90;99.90;;;;;;4967369;28;20226;-86
2021/06/10 00:23:55;;;;;;;9.13;8.33;;;19.80;99.90;;;;;;4983103;28;20237;-82
2021/06/10 00:26:21;;;;;;;9.00;8.10;;;19.70;99.90;;;;;;4969738;28;20767;-82
2021/06/10 00:28:47;;;;;;;8.97;8.17;;;19.50;99.90;;;;;;4969752;28;20222;-81
2021/06/10 00:31:12;;;;;;;9.87;8.43;;;19.50;99.90;;;;;;4980346;28;20210;-82
2021/06/10 00:33:38;;;;;;;13.90;9.33;;;19.40;99.90;;;;;;4971064;28;20183;-83
2021/06/10 00:36:04;;;;;;;8.83;8.00;;;19.50;99.90;;;;;;4968103;28;20721;-81
2021/06/10 00:38:30;;;;;;;9.17;8.37;;;19.60;99.90;;;;;;4971027;28;20463;-83
2021/06/10 00:40:55;;;;;;;10.07;8.97;;;19.40;99.90;;;;;;4988716;28;20222;-81
2021/06/10 00:43:21;;;;;;;8.80;7.97;;;19.30;99.90;;;;;;4977427;28;20190;-85
2021/06/10 00:45:47;;;;;;;8.57;7.77;;;19.40;99.90;;;;;;4978708;28;20202;-82
2021/06/10 00:48:12;;;;;;;8.70;7.77;;;19.40;99.90;;;;;;4978376;28;20193;-81
2021/06/10 00:50:44;;;;;;;12.57;8.80;;;19.10;99.90;;;;;;4975592;28;20213;-83
2021/06/10 00:53:20;;;;;;;8.87;7.97;;;19.20;99.90;;;;;;4976991;28;20206;-79
2021/06/10 00:55:54;;;;;;;9.87;8.50;;;19.10;99.90;;;;;;4961329;28;20578;-80
2021/06/10 00:58:20;;;;;;;9.30;8.00;;;19.00;99.90;;;;;;4985464;28;21284;-79
2021/06/10 01:00:46;;;;;;;8.50;7.80;;;19.10;99.90;;;;;;4976490;28;20466;-83
2021/06/10 01:03:13;;;;;;;9.07;8.17;;;19.10;99.90;;;;;;4961806;28;20449;-79
2021/06/10 01:05:41;;;;;;;8.73;7.93;;;19.20;99.90;;;;;;4976157;28;20449;-81
2021/06/10 01:08:15;;;;;;;10.53;8.43;;;19.10;99.90;;;;;;4970596;28;20953;-78
2021/06/10 01:10:59;;;;;;;9.83;8.93;;;19.00;99.90;;;;;;4972748;28;20437;-80
2021/06/10 01:13:57;;;;;;;9.43;8.53;;;18.90;99.90;;;;;;4968845;28;20447;-82
2021/06/10 01:16:27;;;;;;;8.63;7.73;;;19.00;99.90;;;;;;4967366;28;20446;-84
2021/06/10 01:18:54;;;;;;;9.07;8.33;;;19.20;99.90;;;;;;4972545;28;20457;-85
2021/06/10 01:21:21;;;;;;;9.40;8.13;;;19.20;99.90;;;;;;4954221;28;20512;-82
2021/06/10 01:23:50;;;;;;;13.83;8.27;;;19.20;99.90;;;;;;4958357;28;21051;-83
2021/06/10 01:26:31;;;;;;;10.57;8.77;;;19.10;99.90;;;;;;4976552;28;20483;-85
2021/06/10 01:29:00;;;;;;;12.57;9.63;;;19.00;99.90;;;;;;4978437;28;20433;-85
2021/06/10 01:31:26;;;;;;;10.83;8.70;;;18.90;99.90;;;;;;4978595;28;20534;-84
2021/06/10 01:33:57;;;;;;;9.57;8.57;;;18.90;99.90;;;;;;4972108;28;20461;-84
2021/06/10 01:36:26;;;;;;;9.90;8.30;;;19.00;99.90;;;;;;4969188;28;20438;-83
2021/06/10 01:38:56;;;;;;;8.37;7.57;;;18.90;99.90;;;;;;4963745;28;20447;-85
2021/06/10 01:41:23;;;;;;;8.37;7.50;;;18.90;99.90;;;;;;4967133;28;20461;-82
2021/06/10 01:43:51;;;;;;;13.00;8.37;;;18.80;99.90;;;;;;4951826;28;20462;-82
2021/06/10 01:46:23;;;;;;;12.30;8.50;;;18.80;99.90;;;;;;4966684;28;20995;-84
2021/06/10 01:48:49;;;;;;;8.23;7.43;;;18.80;99.90;;;;;;4967822;28;20438;-83
2021/06/10 01:51:20;;;;;;;8.37;7.47;;;18.90;99.90;;;;;;4970914;28;20489;-80
2021/06/10 01:53:47;;;;;;;8.73;7.90;;;18.80;99.90;;;;;;4965861;28;21121;-79
2021/06/10 01:56:14;;;;;;;9.30;8.33;;;18.80;99.90;;;;;;4960609;28;20508;-81
2021/06/10 01:58:42;;;;;;;8.60;7.70;;;18.80;99.90;;;;;;4962793;28;21208;-80
2021/06/10 02:01:09;;;;;;;8.03;7.33;;;18.90;99.90;;;;;;4961576;28;20509;-82
2021/06/10 02:03:35;;;;;;;9.60;7.30;;;18.70;99.90;;;;;;4964982;28;20450;-81
2021/06/10 02:06:02;;;;;;;8.80;7.90;;;18.80;99.90;;;;;;4967447;28;20440;-80
2021/06/10 02:08:29;;;;;;;10.50;8.73;;;18.60;99.90;;;;;;4962519;28;20449;-79
2021/06/10 02:10:57;;;;;;;7.90;7.10;;;18.50;99.90;;;;;;4966823;28;20457;-78
2021/06/10 02:13:26;;;;;;;9.50;7.60;;;18.40;99.90;;;;;;4962661;28;20442;-82
2021/06/10 02:15:56;;;;;;;9.23;8.43;;;18.30;99.90;;;;;;4964447;28;20449;-81
2021/06/10 02:18:22;;;;;;;8.10;7.30;;;18.30;99.90;;;;;;4963917;28;20452;-81
2021/06/10 02:23:17;;;;;;;8.80;7.23;;;18.40;99.90;;;;;;4971434;28;20297;-82
2021/06/10 02:25:43;;;;;;;9.70;7.60;;;18.30;99.90;;;;;;4974550;28;20442;-81
2021/06/10 02:28:09;;;;;;;9.73;8.73;;;18.30;99.90;;;;;;4968663;28;20187;-79
2021/06/10 02:30:35;;;;;;;8.97;8.03;;;18.40;99.90;;;;;;4972572;28;20682;-82
2021/06/10 02:33:01;;;;;;;8.50;7.77;;;18.40;99.90;;;;;;4964065;28;20202;-81
2021/06/10 02:35:27;;;;;;;8.90;8.07;;;18.30;99.90;;;;;;4962240;28;20446;-82
2021/06/10 02:37:58;;;;;;;8.47;7.77;;;18.30;99.90;;;;;;4965035;28;20453;-80
2021/06/10 02:40:35;;;;;;;9.63;8.63;;;18.20;99.90;;;;;;4961559;28;20202;-81
2021/06/10 02:43:04;;;;;;;11.30;8.70;;;18.30;99.90;;;;;;4962749;28;20430;-81
2021/06/10 02:45:31;;;;;;;9.37;8.57;;;18.20;99.90;;;;;;4966378;28;20458;-82
2021/06/10 02:47:59;;;;;;;9.80;8.20;;;18.20;99.90;;;;;;4966640;28;20445;-80
2021/06/10 02:50:27;;;;;;;8.50;7.70;;;18.20;99.90;;;;;;4963683;28;20462;-81
2021/06/10 02:52:54;;;;;;;9.20;8.30;;;18.30;99.90;;;;;;4964946;28;20446;-80
2021/06/10 02:55:20;;;;;;;8.57;7.80;;;18.30;99.90;;;;;;4960620;28;20899;-81
2021/06/10 02:57:51;;;;;;;9.23;8.30;;;18.30;99.90;;;;;;4962586;28;21117;-79
2021/06/10 03:00:19;;;;;;;9.50;8.57;;;18.20;99.90;;;;;;4962158;28;20588;-81
2021/06/10 03:02:49;;;;;;;11.57;9.00;;;18.00;99.90;;;;;;4963746;28;20793;-81
2021/06/10 03:05:15;;;;;;;8.97;7.90;;;18.00;99.90;;;;;;4962642;28;20450;-81
2021/06/10 03:07:43;;;;;;;10.80;8.17;;;18.00;99.90;;;;;;4957445;28;20439;-80
2021/06/10 03:10:11;;;;;;;9.90;8.90;;;18.10;99.90;;;;;;4946901;28;20470;-81
2021/06/10 03:12:39;;;;;;;9.90;8.20;;;18.10;99.90;;;;;;4967624;28;20466;-82
2021/06/10 03:15:07;;;;;;;10.30;9.07;;;18.00;99.90;;;;;;4963328;28;20433;-82
2021/06/10 03:17:33;;;;;;;9.93;8.90;;;18.20;99.90;;;;;;4963515;28;20448;-82
2021/06/10 03:20:00;;;;;;;9.63;8.70;;;18.30;99.90;;;;;;4964326;28;20442;-81
2021/06/10 03:22:26;;;;;;;10.13;9.07;;;18.10;99.90;;;;;;4948802;28;20532;-81
2021/06/10 03:24:52;;;;;;;12.67;9.07;;;18.20;99.90;;;;;;4960267;28;20838;-82
2021/06/10 03:27:19;;;;;;;9.13;8.33;;;18.10;99.90;;;;;;4964642;28;20182;-81
2021/06/10 03:29:45;;;;;;;10.30;9.30;;;18.00;99.90;;;;;;4962961;28;20437;-81
2021/06/10 03:32:12;;;;;;;10.20;9.20;;;18.10;99.90;;;;;;4962511;28;20535;-81
2021/06/10 03:34:39;;;;;;;10.03;9.13;;;18.00;99.90;;;;;;4960991;28;20434;-81
2021/06/10 03:37:06;;;;;;;9.30;8.40;;;18.00;99.90;;;;;;4960235;28;20434;-81
2021/06/10 03:39:32;;;;;;;9.57;8.67;;;18.10;99.90;;;;;;4964091;28;20944;-81
2021/06/10 03:41:59;;;;;;;9.37;8.30;;;17.90;99.90;;;;;;4965289;28;20996;-81
2021/06/10 03:44:27;;;;;;;9.17;8.27;;;17.90;99.90;;;;;;4947103;28;20450;-82
2021/06/10 03:46:56;;;;;;;8.70;7.90;;;18.00;99.90;;;;;;4956744;28;20434;-81
2021/06/10 03:49:22;;;;;;;9.10;8.20;;;18.00;99.90;;;;;;4967713;28;20830;-82
2021/06/10 03:51:52;;;;;;;8.73;7.80;;;18.00;99.90;;;;;;4965602;28;20470;-81
2021/06/10 03:54:19;;;;;;;8.93;8.03;;;18.20;99.90;;;;;;4967669;28;20265;-81
2021/06/10 03:56:45;;;;;;;10.07;8.63;;;18.20;99.90;;;;;;4971914;28;20503;-81
2021/06/10 03:59:10;;;;;;;10.40;8.30;;;18.30;99.90;;;;;;4967733;28;20438;-80
2021/06/10 04:01:36;;;;;;;8.33;7.53;;;18.10;99.90;;;;;;4945307;28;20756;-81
2021/06/10 04:04:02;;;;;;;9.33;8.13;;;18.10;99.90;;;;;;4967151;28;20654;-81
2021/06/10 04:06:32;;;;;;;11.00;8.80;;;18.20;99.90;;;;;;4967921;28;20195;-81
2021/06/10 04:09:00;;;;;;;10.00;9.00;;;18.30;99.90;;;;;;4969880;28;20448;-80
2021/06/10 04:11:25;;;;;;;9.67;8.77;;;18.00;99.90;;;;;;4969751;28;20482;-81
2021/06/10 04:13:51;;;;;;;10.40;8.80;;;18.10;99.90;;;;;;4954417;28;20469;-82
2021/06/10 04:16:17;;;;;;;11.00;8.77;;;18.20;99.90;;;;;;4968504;28;20194;-81
2021/06/10 04:18:42;;;;;;;9.70;8.33;;;18.20;99.90;;;;;;4967950;28;20179;-81
2021/06/10 04:21:08;;;;;;;9.30;8.50;;;18.30;99.90;;;;;;4968878;28;20207;-81
2021/06/10 04:23:35;;;;;;;8.93;7.70;;;18.40;99.90;;;;;;4968473;28;20213;-82
2021/06/10 04:26:01;;;;;;;9.00;7.80;;;18.50;99.90;;;;;;4961794;28;20670;-81
2021/06/10 04:28:26;;;;;;;9.90;8.90;;;18.40;99.90;;;;;;4965007;28;20455;-81
2021/06/10 04:30:52;;;;;;;9.17;8.27;;;18.40;99.90;;;;;;4966280;28;20215;-81
2021/06/10 04:33:18;;;;;;;9.10;8.20;;;18.30;99.90;;;;;;4978796;28;20191;-81
2021/06/10 04:35:44;;;;;;;10.87;9.40;;;18.30;99.90;;;;;;4964884;28;20222;-81
2021/06/10 04:38:12;;;;;;;8.07;7.37;;;18.30;99.90;;;;;;4968754;28;20243;-82
2021/06/10 04:40:38;;;;;;;8.93;8.03;;;18.30;99.90;;;;;;4973225;28;20215;-81
2021/06/10 04:43:04;;;;;;;10.40;9.43;;;18.50;99.90;;;;;;4979961;28;20733;-81
2021/06/10 04:45:29;;;;;;;10.27;9.27;;;18.60;99.90;;;;;;4977443;28;20206;-80
2021/06/10 04:47:55;;;;;;;9.00;8.20;;;18.70;99.90;;;;;;4983264;28;20213;-82
2021/06/10 04:50:21;;;;;;;10.60;9.60;;;18.70;99.90;;;;;;4976685;28;20499;-81
2021/06/10 04:52:47;;;;;;;12.47;7.57;;;18.60;99.90;;;;;;4981056;28;20208;-80
2021/06/10 04:55:13;;;;;;;9.40;8.50;;;18.60;99.90;;;;;;4977038;28;20188;-82
2021/06/10 04:57:38;;;;;;;10.93;8.60;;;18.60;99.90;;;;;;4974780;28;20955;-82
2021/06/10 05:00:05;;;;;;;11.17;7.87;;;18.70;99.90;;;;;;4973932;28;20436;-82
2021/06/10 05:02:31;;;;;;;8.70;7.90;;;18.70;99.90;;;;;;4981752;28;20202;-82
2021/06/10 05:04:56;;;;;;;11.57;8.67;;;18.70;99.90;;;;;;4975645;28;20458;-81
2021/06/10 05:07:22;;;;;;;12.07;8.30;;;18.70;99.90;;;;;;4975711;28;20202;-81
2021/06/10 05:09:48;;;;;;;9.50;8.50;;;18.70;99.90;;;;;;4956711;28;20190;-82
2021/06/10 05:12:14;;;;;;;9.07;8.17;;;18.70;99.90;;;;;;4957042;28;20210;-82
2021/06/10 05:14:39;;;;;;;10.60;9.10;;;18.60;99.90;;;;;;4972115;28;20186;-82
2021/06/10 05:17:05;;;;;;;17.43;9.20;;;18.60;99.90;;;;;;4960188;28;20226;-82
2021/06/10 05:19:31;;;;;;;10.10;9.10;;;18.60;99.90;;;;;;4974707;28;21185;-82
2021/06/10 05:21:56;;;;;;;10.60;9.50;;;18.80;99.90;;;;;;4968580;28;20223;-81
2021/06/10 05:24:23;;;;;;;9.93;8.93;;;18.90;99.90;;;;;;4967426;28;20229;-83
2021/06/10 05:26:49;;;;;;;11.87;9.37;;;19.00;99.90;;;;;;4954672;28;20197;-81
2021/06/10 05:29:15;;;;;;;9.80;8.90;;;19.10;99.90;;;;;;4973937;28;20450;-82
2021/06/10 05:31:41;;;;;;;9.60;8.70;;;19.10;99.90;;;;;;4978645;28;20210;-82
2021/06/10 05:34:12;;;;;;;9.83;8.90;;;19.20;99.90;;;;;;4979307;28;20415;-81
2021/06/10 05:36:37;;;;;;;9.80;8.80;;;19.20;99.90;;;;;;4980375;28;20183;-81
2021/06/10 05:39:04;;;;;;;9.93;8.93;;;19.20;99.90;;;;;;4979954;28;20442;-82
2021/06/10 05:41:29;;;;;;;9.87;8.40;;;19.20;99.90;;;;;;4972258;28;20210;-82
2021/06/10 05:43:56;;;;;;;10.30;8.30;;;19.20;99.90;;;;;;4973045;28;20486;-82
2021/06/10 05:46:22;;;;;;;10.00;9.07;;;19.30;99.90;;;;;;4975454;28;20252;-81
2021/06/10 05:48:49;;;;;;;10.13;9.10;;;19.30;99.90;;;;;;4973099;28;20441;-83
2021/06/10 05:51:15;;;;;;;9.30;8.30;;;19.30;99.90;;;;;;4962919;28;20482;-82
2021/06/10 05:53:40;;;;;;;10.97;9.93;;;19.20;99.90;;;;;;4963612;28;20537;-83
2021/06/10 05:56:06;;;;;;;10.20;9.20;;;19.20;99.90;;;;;;4974799;28;20433;-81
2021/06/10 05:58:32;;;;;;;10.77;9.67;;;19.10;99.90;;;;;;4968727;28;20202;-81
2021/06/10 06:00:58;;;;;;;11.33;10.00;;;19.00;99.90;;;;;;4961152;28;20199;-80
2021/06/10 06:03:26;;;;;;;15.03;10.63;;;19.00;99.90;;;;;;4946682;28;20206;-82
2021/06/10 06:05:53;;;;;;;10.60;9.50;;;18.90;99.90;;;;;;4946784;28;20486;-83
2021/06/10 06:08:18;;;;;;;10.80;9.70;;;18.90;99.90;;;;;;4962744;28;20572;-83
2021/06/10 06:10:47;;;;;;;10.50;9.50;;;19.10;99.90;;;;;;4964399;28;20481;-82
2021/06/10 06:13:16;;;;;;;11.17;10.07;;;19.20;99.90;;;;;;4962597;28;20221;-81
2021/06/10 06:15:41;;;;;;;13.20;11.13;;;19.30;99.90;;;;;;4964806;28;20450;-82
2021/06/10 06:18:08;;;;;;;11.70;10.47;;;19.30;99.90;;;;;;4955290;28;20446;-82
2021/06/10 06:20:34;;;;;;;11.33;10.13;;;19.40;99.90;;;;;;4968219;28;20607;-83
2021/06/10 06:23:00;;;;;;;12.23;10.93;;;19.40;99.90;;;;;;4971799;28;20488;-83
2021/06/10 06:25:25;;;;;;;12.27;10.87;;;19.50;99.90;;;;;;4964008;28;20337;-82
2021/06/10 06:27:51;;;;;;;11.60;10.50;;;19.50;99.90;;;;;;4964083;28;20202;-81
2021/06/10 06:30:18;;;;;;;12.63;10.43;;;19.40;99.90;;;;;;4964742;28;20658;-82
2021/06/10 06:32:43;;;;;;;10.70;9.70;;;19.50;99.90;;;;;;4959892;28;20206;-82
2021/06/10 06:35:10;;;;;;;11.50;10.30;;;19.50;99.90;;;;;;4964604;28;20438;-82
2021/06/10 06:37:36;;;;;;;13.93;10.40;;;19.50;99.90;;;;;;4962982;28;20183;-82
2021/06/10 06:40:04;;;;;;;11.43;10.23;;;19.50;99.90;;;;;;4948125;28;20442;-83
2021/06/10 06:42:30;;;;;;;13.10;11.80;;;19.60;99.90;;;;;;4967320;28;21008;-82
2021/06/10 06:44:56;;;;;;;13.07;11.50;;;19.60;99.90;;;;;;4971400;28;20446;-82
2021/06/10 06:47:22;;;;;;;12.40;11.00;;;19.70;99.90;;;;;;4940007;28;20435;-82
2021/06/10 06:49:48;;;;;;;15.73;10.60;;;19.80;99.90;;;;;;4969925;28;20421;-82
2021/06/10 06:52:13;;;;;;;13.70;10.50;;;19.80;99.90;;;;;;4953825;28;20297;-80
2021/06/10 06:54:39;;;;;;;12.03;10.30;;;19.90;99.90;;;;;;4968816;28;20504;-82
2021/06/10 06:57:05;;;;;;;12.23;11.03;;;19.90;99.90;;;;;;4967302;28;20205;-83
2021/06/10 06:59:31;;;;;;;12.20;11.00;;;19.90;99.90;;;;;;4968834;28;20654;-83
2021/06/10 07:01:57;;;;;;;15.00;11.60;;;20.00;99.90;;;;;;4966262;28;20861;-82
2021/06/10 07:04:24;;;;;;;12.77;11.43;;;20.10;99.90;;;;;;4970853;28;20186;-82
2021/06/10 07:06:51;;;;;;;13.03;11.10;;;20.10;99.90;;;;;;4964474;28;20442;-82
2021/06/10 07:09:17;;;;;;;12.83;10.77;;;20.10;99.90;;;;;;4968313;28;21042;-83
2021/06/10 07:11:42;;;;;;;13.13;11.83;;;20.10;99.90;;;;;;4970149;28;20469;-83
2021/06/10 07:14:09;;;;;;;12.50;11.17;;;20.20;99.90;;;;;;4969459;28;20190;-84
2021/06/10 07:16:35;;;;;;;12.80;11.50;;;20.20;99.90;;;;;;4968221;28;20618;-84
2021/06/10 07:19:01;;;;;;;13.17;11.50;;;20.20;99.90;;;;;;4970930;28;20807;-83
2021/06/10 07:21:39;;;;;;;13.03;11.83;;;20.20;99.90;;;;;;4957968;28;20466;-84
2021/06/10 07:24:05;;;;;;;13.23;11.83;;;20.30;99.90;;;;;;4971421;28;20182;-84
2021/06/10 07:26:31;;;;;;;13.00;11.60;;;20.50;99.90;;;;;;4971265;28;20834;-83
2021/06/10 07:28:56;;;;;;;12.07;10.87;;;20.50;99.90;;;;;;4969692;28;20217;-82
2021/06/10 07:31:22;;;;;;;12.73;11.20;;;20.60;99.90;;;;;;4968646;28;20250;-83
2021/06/10 07:33:48;;;;;;;12.83;11.63;;;20.60;99.90;;;;;;4976240;28;20196;-82
2021/06/10 07:36:13;;;;;;;13.17;11.97;;;20.70;99.90;;;;;;4970057;28;20637;-83
2021/06/10 07:38:39;;;;;;;13.00;11.70;;;20.70;99.90;;;;;;4971792;28;20182;-82
2021/06/10 07:41:04;;;;;;;12.57;11.33;;;20.70;99.90;;;;;;4975969;28;20215;-83
2021/06/10 07:43:30;;;;;;;11.90;10.77;;;20.70;99.90;;;;;;4954223;28;20202;-82
2021/06/10 07:45:56;;;;;;;12.00;10.80;;;20.80;99.90;;;;;;4974904;28;20214;-81
2021/06/10 07:48:21;;;;;;;14.07;12.67;;;20.80;99.90;;;;;;4950153;28;20280;-82
2021/06/10 07:50:47;;;;;;;14.10;12.60;;;20.80;99.90;;;;;;4954134;28;20302;-82
2021/06/10 07:53:13;;;;;;;12.27;11.10;;;20.90;99.90;;;;;;4968046;28;20187;-82
2021/06/10 07:55:38;;;;;;;15.00;13.50;;;21.00;99.90;;;;;;4968968;28;20183;-82
2021/06/10 07:58:04;;;;;;;17.23;14.23;;;21.00;99.90;;;;;;4957861;28;20191;-82
2021/06/10 08:00:30;;;;;;;14.33;12.90;;;21.00;99.90;;;;;;4972545;28;20217;-83
2021/06/10 08:02:58;;;;;;;16.03;13.60;;;21.10;99.90;;;;;;4958424;28;20195;-82
2021/06/10 08:05:24;;;;;;;14.20;12.80;;;21.20;99.90;;;;;;4973829;28;20546;-82
2021/06/10 08:07:50;;;;;;;16.67;15.00;;;21.30;99.90;;;;;;4973421;28;20549;-82
2021/06/10 08:10:16;;;;;;;16.17;14.67;;;21.40;99.90;;;;;;4974360;28;20540;-82
2021/06/10 08:12:44;;;;;;;18.37;16.40;;;21.50;99.90;;;;;;4978104;28;20198;-83
2021/06/10 08:15:10;;;;;;;17.23;15.30;;;21.50;99.90;;;;;;4974430;28;20202;-83
2021/06/10 08:17:36;;;;;;;16.47;14.87;;;21.60;99.90;;;;;;4969790;28;20453;-83
2021/06/10 08:20:08;;;;;;;19.27;17.17;;;21.60;99.90;;;;;;4972020;28;20442;-83
2021/06/10 08:22:33;;;;;;;16.90;15.30;;;21.70;99.90;;;;;;4973391;28;20310;-84
2021/06/10 08:24:59;;;;;;;19.97;18.07;;;21.80;99.90;;;;;;4975645;28;20467;-83
2021/06/10 08:27:25;;;;;;;18.10;16.27;;;21.80;99.90;;;;;;4975916;28;20185;-83
2021/06/10 08:29:51;;;;;;;19.37;17.57;;;21.80;99.90;;;;;;4974993;28;20193;-83
2021/06/10 08:32:16;;;;;;;17.77;15.97;;;21.90;99.90;;;;;;4974128;28;20218;-83
2021/06/10 08:34:42;;;;;;;18.60;16.70;;;21.90;99.90;;;;;;4974733;28;20242;-84
2021/06/10 08:37:08;;;;;;;18.37;15.93;;;22.00;99.90;;;;;;4972304;28;20195;-83
2021/06/10 08:39:33;;;;;;;17.70;15.80;;;22.10;99.90;;;;;;4976270;28;20183;-83
2021/06/10 08:41:59;;;;;;;17.90;16.20;;;22.20;99.90;;;;;;4973464;28;20210;-84
2021/06/10 08:44:25;;;;;;;19.47;17.07;;;22.40;99.90;;;;;;4979078;28;20191;-83
2021/06/10 08:46:52;;;;;;;17.67;14.73;;;22.40;99.90;;;;;;4976811;28;20705;-82
2021/06/10 08:49:19;;;;;;;19.63;17.43;;;22.30;99.90;;;;;;4977359;28;20270;-83
2021/06/10 08:51:45;;;;;;;19.60;17.60;;;22.50;99.90;;;;;;4964576;28;20478;-82
2021/06/10 08:54:11;;;;;;;19.57;17.70;;;22.50;99.90;;;;;;4979044;28;20441;-82
2021/06/10 08:56:40;;;;;;;18.67;16.43;;;22.40;99.90;;;;;;4963607;28;20438;-83
2021/06/10 08:59:06;;;;;;;20.93;18.83;;;22.40;99.90;;;;;;4978034;28;20183;-82
2021/06/10 09:01:35;;;;;;;18.13;15.73;;;22.40;99.90;;;;;;4975147;28;20479;-83
2021/06/10 09:04:04;;;;;;;18.50;16.60;;;22.50;99.90;;;;;;4966301;28;20691;-84
2021/06/10 09:06:48;;;;;;;17.77;15.90;;;22.70;99.90;;;;;;4966436;28;20439;-83
2021/06/10 09:09:15;;;;;;;21.97;19.43;;;23.00;99.90;;;;;;4971346;28;20430;-82
2021/06/10 09:11:41;;;;;;;18.93;17.00;;;23.10;99.90;;;;;;4968953;28;20863;-82
2021/06/10 09:14:10;;;;;;;18.33;16.63;;;23.00;99.90;;;;;;4969883;28;20442;-81
2021/06/10 09:16:38;;;;;;;19.23;17.33;;;23.00;99.90;;;;;;4968300;28;20187;-83
2021/06/10 09:19:16;;;;;;;20.23;18.13;;;23.20;99.90;;;;;;4962766;28;20447;-81
2021/06/10 09:21:44;;;;;;;19.97;18.07;;;23.20;99.90;;;;;;4965931;28;20524;-81
2021/06/10 09:24:17;;;;;;;20.27;18.37;;;23.10;99.90;;;;;;4968737;28;20956;-81
2021/06/10 09:26:44;;;;;;;18.60;16.60;;;23.10;99.90;;;;;;4967144;28;20445;-83
2021/06/10 09:29:10;;;;;;;17.70;16.00;;;23.10;99.90;;;;;;4970808;28;20449;-82
2021/06/10 09:31:37;;;;;;;18.13;16.23;;;23.40;99.90;;;;;;4975304;28;20474;-82
2021/06/10 09:34:09;;;;;;;20.40;18.30;;;23.40;99.90;;;;;;4974097;28;20265;-81
2021/06/10 09:36:47;;;;;;;19.43;17.37;;;23.40;99.90;;;;;;4989023;28;20901;-82
2021/06/10 09:39:23;;;;;;;19.03;17.17;;;23.40;99.90;;;;;;4972960;28;20847;-82
2021/06/10 09:42:05;;;;;;;18.57;16.83;;;23.50;99.90;;;;;;4977563;28;20468;-83
2021/06/10 09:44:59;;;;;;;22.30;17.43;;;23.50;99.90;;;;;;4972328;28;20440;-82
2021/06/10 09:47:32;;;;;;;18.67;16.67;;;23.70;99.90;;;;;;4974020;28;20445;-83
2021/06/10 09:50:19;;;;;;;19.63;17.77;;;23.80;99.90;;;;;;4973579;28;20450;-83
2021/06/10 09:52:47;;;;;;;17.80;16.00;;;24.00;99.90;;;;;;4971578;28;20442;-82
2021/06/10 09:55:34;;;;;;;20.30;18.30;;;24.00;99.90;;;;;;4977253;28;20446;-82
2021/06/10 09:58:06;;;;;;;21.30;19.03;;;24.10;99.90;;;;;;4982563;28;20541;-83
2021/06/10 10:00:32;;;;;;;20.87;18.67;;;24.10;99.90;;;;;;4977740;28;20512;-82
2021/06/10 10:02:58;;;;;;;19.97;18.07;;;24.00;99.90;;;;;;4974013;28;20442;-83
2021/06/10 10:05:25;;;;;;;20.37;18.27;;;24.00;99.90;;;;;;4969240;28;20187;-83
2021/06/10 10:07:54;;;;;;;21.20;19.10;;;24.10;99.90;;;;;;4971709;28;20198;-82
2021/06/10 10:10:21;;;;;;;20.60;18.20;;;24.20;99.90;;;;;;4975231;28;20507;-84
2021/06/10 10:12:49;;;;;;;22.20;18.37;;;24.20;99.90;;;;;;4966469;28;20866;-83
2021/06/10 10:15:17;;;;;;;20.20;18.13;;;24.20;99.90;;;;;;4972362;28;20453;-82
2021/06/10 10:17:45;;;;;;;19.20;17.20;;;24.20;99.90;;;;;;4968910;28;20513;-83
2021/06/10 10:20:13;;;;;;;18.73;16.83;;;24.40;99.90;;;;;;4971971;28;20839;-82
2021/06/10 10:22:39;;;;;;;20.40;18.40;;;24.50;99.90;;;;;;4973723;28;20445;-82
2021/06/10 10:25:06;;;;;;;19.20;17.50;;;24.50;99.90;;;;;;4967542;28;20433;-83
2021/06/10 10:27:31;;;;;;;16.60;15.07;;;24.60;99.90;;;;;;4970624;28;20434;-84
2021/06/10 10:29:58;;;;;;;18.57;16.77;;;24.80;99.90;;;;;;4970824;28;20518;-84
2021/06/10 10:32:29;;;;;;;17.27;15.57;;;25.00;99.90;;;;;;4976377;28;20980;-83
2021/06/10 10:35:24;;;;;;;17.47;15.80;;;25.00;99.90;;;;;;4968291;28;20453;-83
2021/06/10 10:37:52;;;;;;;17.80;16.00;;;25.00;99.90;;;;;;4965496;28;20444;-83
2021/06/10 10:40:22;;;;;;;19.77;17.83;;;25.20;99.90;;;;;;4970811;28;20469;-82
2021/06/10 10:42:48;;;;;;;16.07;14.53;;;25.10;99.90;;;;;;4970756;28;20435;-83
2021/06/10 10:45:20;;;;;;;17.77;16.20;;;25.20;99.90;;;;;;4965069;28;20691;-83
2021/06/10 10:47:56;;;;;;;16.43;14.93;;;25.30;99.90;;;;;;4967843;28;20446;-83
2021/06/10 10:50:44;;;;;;;15.93;14.43;;;25.30;99.90;;;;;;4970498;28;20497;-82
2021/06/10 10:53:25;;;;;;;15.63;14.30;;;25.40;99.90;;;;;;4963776;28;20865;-83
2021/06/10 10:56:06;;;;;;;14.43;13.13;;;25.50;99.90;;;;;;4963623;28;20516;-83
2021/06/10 10:58:32;;;;;;;13.10;11.90;;;25.70;99.90;;;;;;4966459;28;20445;-82
2021/06/10 11:01:10;;;;;;;13.60;12.30;;;25.90;99.90;;;;;;4966371;28;21015;-84
2021/06/10 11:03:43;;;;;;;13.57;11.97;;;25.90;99.90;;;;;;4977787;28;20489;-83
2021/06/10 11:06:21;;;;;;;11.73;10.70;;;26.10;99.90;;;;;;4972995;28;20476;-82
2021/06/10 11:09:01;;;;;;;13.57;12.40;;;26.10;99.90;;;;;;4965786;28;20520;-82
2021/06/10 11:11:59;;;;;;;13.93;12.73;;;26.20;99.90;;;;;;4964938;28;20545;-82
2021/06/10 11:14:44;;;;;;;13.90;12.80;;;26.40;99.90;;;;;;4963138;28;20501;-82
2021/06/10 11:17:37;;;;;;;12.23;11.23;;;26.60;99.90;;;;;;4972399;28;20456;-81
2021/06/10 11:20:08;;;;;;;13.10;12.00;;;26.70;99.90;;;;;;4969478;28;20462;-81
2021/06/10 11:22:49;;;;;;;13.00;11.67;;;26.90;99.90;;;;;;4979411;28;20483;-83
2021/06/10 11:25:36;;;;;;;13.07;12.00;;;27.20;99.90;;;;;;4977377;28;20494;-81
2021/06/10 11:28:14;;;;;;;10.83;9.67;;;27.40;99.90;;;;;;4976969;28;20425;-84
2021/06/10 11:30:40;;;;;;;10.67;9.70;;;27.50;99.90;;;;;;4974496;28;20493;-82
2021/06/10 11:33:09;;;;;;;11.23;10.13;;;27.40;99.90;;;;;;4968186;28;20937;-82
2021/06/10 11:35:37;;;;;;;10.00;9.07;;;27.50;99.90;;;;;;4970297;28;20429;-84
2021/06/10 11:38:21;;;;;;;11.60;10.60;;;27.60;99.90;;;;;;4972884;28;20464;-82
2021/06/10 11:40:51;;;;;;;11.47;10.57;;;27.70;99.90;;;;;;4978754;28;20536;-85
2021/06/10 11:43:18;;;;;;;11.67;10.77;;;27.90;99.90;;;;;;4968050;28;20439;-83
2021/06/10 11:46:08;;;;;;;10.77;9.67;;;27.80;99.90;;;;;;4969621;28;20442;-84
2021/06/10 11:48:49;;;;;;;10.37;9.47;;;27.80;99.90;;;;;;4968935;28;20446;-84
2021/06/10 11:51:28;;;;;;;11.27;9.97;;;28.10;99.90;;;;;;4970605;28;20471;-84
2021/06/10 11:54:12;;;;;;;10.20;9.40;;;28.30;99.90;;;;;;4990172;28;21039;-84
2021/06/10 11:56:42;;;;;;;9.23;8.53;;;28.80;99.90;;;;;;4978822;28;21019;-84
2021/06/10 11:59:17;;;;;;;8.67;7.93;;;28.80;99.90;;;;;;4970150;28;20508;-84
2021/06/10 12:02:10;;;;;;;8.90;8.20;;;29.00;99.90;;;;;;4974279;28;20456;-84
2021/06/10 12:04:40;;;;;;;7.93;7.23;;;29.90;99.90;;;;;;4970263;28;20442;-83
2021/06/10 12:07:10;;;;;;;8.67;7.30;;;31.90;99.50;;;;;;4969788;28;20617;-85
2021/06/10 12:09:57;;;;;;;7.40;6.80;;;33.80;91.80;;;;;;4972208;28;20791;-83
2021/06/10 12:12:47;;;;;;;7.73;7.10;;;34.60;81.80;;;;;;4974504;28;21155;-84
2021/06/10 12:15:26;;;;;;;7.40;6.80;;;35.40;74.00;;;;;;4970107;28;20429;-85
2021/06/10 12:18:02;;;;;;;7.03;6.53;;;37.30;63.80;;;;;;4979010;28;20438;-82
2021/06/10 12:20:34;;;;;;;7.23;6.63;;;37.80;58.50;;;;;;4975793;28;20419;-85
2021/06/10 12:23:01;;;;;;;6.80;6.30;;;39.00;56.30;;;;;;4975643;28;20454;-84
2021/06/10 12:25:30;;;;;;;6.87;6.37;;;39.30;52.20;;;;;;4976407;28;20428;-84
2021/06/10 12:28:09;;;;;;;7.73;7.20;;;38.70;50.40;;;;;;4971215;28;20417;-84
2021/06/10 12:30:39;;;;;;;7.93;7.33;;;38.30;50.50;;;;;;4975498;28;20491;-84
2021/06/10 12:33:14;;;;;;;7.40;6.90;;;38.50;48.90;;;;;;4975240;28;21010;-84
2021/06/10 12:35:43;;;;;;;8.80;8.10;;;38.80;50.00;;;;;;4978662;28;20394;-84
2021/06/10 12:38:10;;;;;;;8.53;7.73;;;39.60;49.50;;;;;;4976083;28;20394;-84
2021/06/10 12:40:45;;;;;;;8.53;7.87;;;39.80;48.70;;;;;;4974392;28;20505;-85
2021/06/10 12:43:23;;;;;;;8.37;7.63;;;40.10;47.60;;;;;;4974676;28;20397;-84
2021/06/10 12:46:10;;;;;;;7.30;6.70;;;40.90;46.20;;;;;;4977633;28;20442;-83
2021/06/10 12:48:36;;;;;;;8.47;7.87;;;42.10;44.90;;;;;;4974907;28;20456;-83